sensor_id;sensor_type;location;lat;lon;timestamp;temperature;humidity
13115;DHT22;6623;52.120;8.660;2023-03-01T00:01:45;-0.10;70.10
13115;DHT22;6623;52.120;8.660;2023-03-01T00:04:10;-0.10;70.10
13115;DHT22;6623;52.120;8.660;2023-03-01T00:06:36;-0.10;70.20
13115;DHT22;6623;52.120;8.660;2023-03-01T00:09:02;-0.10;70.20
13115;DHT22;6623;52.120;8.660;2023-03-01T00:11:30;-0.20;70.10
13115;DHT22;6623;52.120;8.660;2023-03-01T00:13:58;-0.20;70.20
13115;DHT22;6623;52.120;8.660;2023-03-01T00:16:41;-0.20;70.20
13115;DHT22;6623;52.120;8.660;2023-03-01T00:19:12;-0.20;70.20
13115;DHT22;6623;52.120;8.660;2023-03-01T00:21:38;-0.20;70.20
13115;DHT22;6623;52.120;8.660;2023-03-01T00:24:03;-0.20;70.30
13115;DHT22;6623;52.120;8.660;2023-03-01T00:26:30;-0.20;70.30
13115;DHT22;6623;52.120;8.660;2023-03-01T00:28:57;-0.30;70.30
13115;DHT22;6623;52.120;8.660;2023-03-01T00:31:25;-0.30;70.30
13115;DHT22;6623;52.120;8.660;2023-03-01T00:33:55;-0.30;70.30
13115;DHT22;6623;52.120;8.660;2023-03-01T00:36:34;-0.30;70.30
13115;DHT22;6623;52.120;8.660;2023-03-01T00:39:00;-0.30;70.40
13115;DHT22;6623;52.120;8.660;2023-03-01T00:41:26;-0.30;70.40
13115;DHT22;6623;52.120;8.660;2023-03-01T00:43:53;-0.40;70.40
13115;DHT22;6623;52.120;8.660;2023-03-01T00:46:21;-0.40;70.40
13115;DHT22;6623;52.120;8.660;2023-03-01T00:48:47;-0.20;70.50
13115;DHT22;6623;52.120;8.660;2023-03-01T00:51:15;-0.40;70.40
13115;DHT22;6623;52.120;8.660;2023-03-01T00:53:41;-0.40;70.50
13115;DHT22;6623;52.120;8.660;2023-03-01T00:56:09;-0.40;70.50
13115;DHT22;6623;52.120;8.660;2023-03-01T00:58:35;-0.50;70.50
13115;DHT22;6623;52.120;8.660;2023-03-01T01:01:01;-0.50;70.60
13115;DHT22;6623;52.120;8.660;2023-03-01T01:03:31;-0.50;70.60
13115;DHT22;6623;52.120;8.660;2023-03-01T01:05:57;-0.50;70.70
13115;DHT22;6623;52.120;8.660;2023-03-01T01:08:23;-0.50;70.80
13115;DHT22;6623;52.120;8.660;2023-03-01T01:10:48;-0.50;70.90
13115;DHT22;6623;52.120;8.660;2023-03-01T01:13:14;-0.50;71.10
13115;DHT22;6623;52.120;8.660;2023-03-01T01:15:39;-0.50;71.20
13115;DHT22;6623;52.120;8.660;2023-03-01T01:18:05;-0.60;71.20
13115;DHT22;6623;52.120;8.660;2023-03-01T01:20:31;-0.60;71.20
13115;DHT22;6623;52.120;8.660;2023-03-01T01:22:57;-0.60;71.30
13115;DHT22;6623;52.120;8.660;2023-03-01T01:25:24;-0.60;71.40
13115;DHT22;6623;52.120;8.660;2023-03-01T01:27:52;-0.60;71.40
13115;DHT22;6623;52.120;8.660;2023-03-01T01:30:18;-0.60;71.40
13115;DHT22;6623;52.120;8.660;2023-03-01T01:32:43;-0.60;71.40
13115;DHT22;6623;52.120;8.660;2023-03-01T01:35:09;-0.30;71.60
13115;DHT22;6623;52.120;8.660;2023-03-01T01:37:34;-0.70;71.40
13115;DHT22;6623;52.120;8.660;2023-03-01T01:40:01;-0.70;71.50
13115;DHT22;6623;52.120;8.660;2023-03-01T01:42:28;-0.70;71.60
13115;DHT22;6623;52.120;8.660;2023-03-01T01:45:24;-0.70;71.60
13115;DHT22;6623;52.120;8.660;2023-03-01T01:47:51;-0.70;71.60
13115;DHT22;6623;52.120;8.660;2023-03-01T01:50:18;-0.80;71.50
13115;DHT22;6623;52.120;8.660;2023-03-01T01:52:45;-0.80;71.60
13115;DHT22;6623;52.120;8.660;2023-03-01T01:55:15;-0.80;71.60
13115;DHT22;6623;52.120;8.660;2023-03-01T01:57:45;-0.80;71.60
13115;DHT22;6623;52.120;8.660;2023-03-01T02:00:18;-0.80;71.70
13115;DHT22;6623;52.120;8.660;2023-03-01T02:02:45;-0.90;71.60
13115;DHT22;6623;52.120;8.660;2023-03-01T02:07:48;-0.90;71.70
13115;DHT22;6623;52.120;8.660;2023-03-01T02:10:15;-0.90;71.80
13115;DHT22;6623;52.120;8.660;2023-03-01T02:12:41;-0.90;71.80
13115;DHT22;6623;52.120;8.660;2023-03-01T02:15:07;-1.00;71.80
13115;DHT22;6623;52.120;8.660;2023-03-01T02:17:33;-1.00;71.80
13115;DHT22;6623;52.120;8.660;2023-03-01T02:22:50;-1.00;71.90
13115;DHT22;6623;52.120;8.660;2023-03-01T02:28:02;-1.00;71.90
13115;DHT22;6623;52.120;8.660;2023-03-01T02:30:31;-1.00;72.00
13115;DHT22;6623;52.120;8.660;2023-03-01T02:32:59;-1.00;72.00
13115;DHT22;6623;52.120;8.660;2023-03-01T02:35:30;-1.10;71.90
13115;DHT22;6623;52.120;8.660;2023-03-01T02:37:57;-1.10;72.00
13115;DHT22;6623;52.120;8.660;2023-03-01T02:40:25;-1.10;72.10
13115;DHT22;6623;52.120;8.660;2023-03-01T02:42:56;-0.70;72.30
13115;DHT22;6623;52.120;8.660;2023-03-01T02:45:21;-1.10;72.10
13115;DHT22;6623;52.120;8.660;2023-03-01T02:51:23;-1.10;72.20
13115;DHT22;6623;52.120;8.660;2023-03-01T02:56:40;-1.20;72.10
13115;DHT22;6623;52.120;8.660;2023-03-01T02:59:07;-1.10;72.30
13115;DHT22;6623;52.120;8.660;2023-03-01T03:01:34;-1.20;72.30
13115;DHT22;6623;52.120;8.660;2023-03-01T03:04:09;-1.20;72.30
13115;DHT22;6623;52.120;8.660;2023-03-01T03:06:35;-1.20;72.30
13115;DHT22;6623;52.120;8.660;2023-03-01T03:09:01;-1.20;72.40
13115;DHT22;6623;52.120;8.660;2023-03-01T03:11:27;-1.30;72.40
13115;DHT22;6623;52.120;8.660;2023-03-01T03:13:53;-1.30;72.40
13115;DHT22;6623;52.120;8.660;2023-03-01T03:16:19;-1.20;72.50
13115;DHT22;6623;52.120;8.660;2023-03-01T03:18:45;-1.30;72.40
13115;DHT22;6623;52.120;8.660;2023-03-01T03:21:11;-1.30;72.50
13115;DHT22;6623;52.120;8.660;2023-03-01T03:23:37;-1.10;72.70
13115;DHT22;6623;52.120;8.660;2023-03-01T03:26:04;-1.40;72.50
13115;DHT22;6623;52.120;8.660;2023-03-01T03:28:31;-1.40;72.60
13115;DHT22;6623;52.120;8.660;2023-03-01T03:30:57;-1.30;72.60
13115;DHT22;6623;52.120;8.660;2023-03-01T03:33:24;-1.40;72.60
13115;DHT22;6623;52.120;8.660;2023-03-01T03:35:49;-1.40;72.60
13115;DHT22;6623;52.120;8.660;2023-03-01T03:38:17;-1.40;72.60
13115;DHT22;6623;52.120;8.660;2023-03-01T03:41:06;-1.30;72.70
13115;DHT22;6623;52.120;8.660;2023-03-01T03:43:35;-1.40;72.70
13115;DHT22;6623;52.120;8.660;2023-03-01T03:46:02;-1.40;72.70
13115;DHT22;6623;52.120;8.660;2023-03-01T03:48:32;-1.40;72.80
13115;DHT22;6623;52.120;8.660;2023-03-01T03:50:58;-1.50;72.80
13115;DHT22;6623;52.120;8.660;2023-03-01T03:53:27;-1.50;72.80
13115;DHT22;6623;52.120;8.660;2023-03-01T03:55:54;-1.50;72.80
13115;DHT22;6623;52.120;8.660;2023-03-01T03:58:21;-1.50;72.90
13115;DHT22;6623;52.120;8.660;2023-03-01T04:00:50;-1.50;72.90
13115;DHT22;6623;52.120;8.660;2023-03-01T04:03:17;-1.50;72.90
13115;DHT22;6623;52.120;8.660;2023-03-01T04:05:44;-1.50;72.90
13115;DHT22;6623;52.120;8.660;2023-03-01T04:08:10;-1.60;72.90
13115;DHT22;6623;52.120;8.660;2023-03-01T04:10:38;-1.60;72.90
13115;DHT22;6623;52.120;8.660;2023-03-01T04:13:05;-1.60;73.00
13115;DHT22;6623;52.120;8.660;2023-03-01T04:15:32;-1.60;73.00
13115;DHT22;6623;52.120;8.660;2023-03-01T04:17:58;-1.60;73.10
13115;DHT22;6623;52.120;8.660;2023-03-01T04:20:27;-1.60;73.10
13115;DHT22;6623;52.120;8.660;2023-03-01T04:23:13;-1.60;73.10
13115;DHT22;6623;52.120;8.660;2023-03-01T04:25:53;-1.60;73.20
13115;DHT22;6623;52.120;8.660;2023-03-01T04:28:26;-1.70;73.20
13115;DHT22;6623;52.120;8.660;2023-03-01T04:30:52;-1.70;73.80
13115;DHT22;6623;52.120;8.660;2023-03-01T04:33:18;-1.70;73.10
13115;DHT22;6623;52.120;8.660;2023-03-01T04:35:44;-1.70;73.20
13115;DHT22;6623;52.120;8.660;2023-03-01T04:38:10;-1.70;73.20
13115;DHT22;6623;52.120;8.660;2023-03-01T04:40:36;-1.70;73.20
13115;DHT22;6623;52.120;8.660;2023-03-01T04:43:03;-1.70;73.20
13115;DHT22;6623;52.120;8.660;2023-03-01T04:45:28;-1.80;73.20
13115;DHT22;6623;52.120;8.660;2023-03-01T04:47:54;-1.70;73.30
13115;DHT22;6623;52.120;8.660;2023-03-01T04:50:20;-1.80;73.20
13115;DHT22;6623;52.120;8.660;2023-03-01T04:52:46;-1.40;73.50
13115;DHT22;6623;52.120;8.660;2023-03-01T04:55:13;-1.80;73.30
13115;DHT22;6623;52.120;8.660;2023-03-01T04:57:39;-1.80;73.30
13115;DHT22;6623;52.120;8.660;2023-03-01T05:00:08;-1.80;73.40
13115;DHT22;6623;52.120;8.660;2023-03-01T05:02:47;-1.80;73.40
13115;DHT22;6623;52.120;8.660;2023-03-01T05:05:14;-1.80;73.40
13115;DHT22;6623;52.120;8.660;2023-03-01T05:07:40;-1.80;73.40
13115;DHT22;6623;52.120;8.660;2023-03-01T05:10:06;-1.90;73.30
13115;DHT22;6623;52.120;8.660;2023-03-01T05:12:32;-1.90;73.30
13115;DHT22;6623;52.120;8.660;2023-03-01T05:14:57;-1.90;73.40
13115;DHT22;6623;52.120;8.660;2023-03-01T05:17:23;-1.90;73.40
13115;DHT22;6623;52.120;8.660;2023-03-01T05:19:49;-1.90;73.50
13115;DHT22;6623;52.120;8.660;2023-03-01T05:22:15;-2.00;73.50
13115;DHT22;6623;52.120;8.660;2023-03-01T05:24:41;-2.00;73.50
13115;DHT22;6623;52.120;8.660;2023-03-01T05:27:07;-2.00;73.50
13115;DHT22;6623;52.120;8.660;2023-03-01T05:29:32;-2.00;73.50
13115;DHT22;6623;52.120;8.660;2023-03-01T05:32:01;-2.00;73.60
13115;DHT22;6623;52.120;8.660;2023-03-01T05:34:30;-2.00;73.60
13115;DHT22;6623;52.120;8.660;2023-03-01T05:36:56;-2.00;73.60
13115;DHT22;6623;52.120;8.660;2023-03-01T05:39:24;-2.00;73.70
13115;DHT22;6623;52.120;8.660;2023-03-01T05:41:54;-2.00;73.70
13115;DHT22;6623;52.120;8.660;2023-03-01T05:44:20;-2.10;73.60
13115;DHT22;6623;52.120;8.660;2023-03-01T05:46:46;-2.10;73.60
13115;DHT22;6623;52.120;8.660;2023-03-01T05:49:12;-2.10;73.70
13115;DHT22;6623;52.120;8.660;2023-03-01T05:51:39;-2.10;73.70
13115;DHT22;6623;52.120;8.660;2023-03-01T05:54:05;-2.10;73.90
13115;DHT22;6623;52.120;8.660;2023-03-01T05:56:34;-2.10;73.90
13115;DHT22;6623;52.120;8.660;2023-03-01T05:59:01;-2.10;74.00
13115;DHT22;6623;52.120;8.660;2023-03-01T06:01:27;-2.10;74.00
13115;DHT22;6623;52.120;8.660;2023-03-01T06:03:53;-2.10;74.00
13115;DHT22;6623;52.120;8.660;2023-03-01T06:06:18;-1.40;74.50
13115;DHT22;6623;52.120;8.660;2023-03-01T06:08:44;-2.10;74.20
13115;DHT22;6623;52.120;8.660;2023-03-01T06:11:09;-2.10;74.20
13115;DHT22;6623;52.120;8.660;2023-03-01T06:13:35;-2.10;74.20
13115;DHT22;6623;52.120;8.660;2023-03-01T06:16:04;-2.10;74.20
13115;DHT22;6623;52.120;8.660;2023-03-01T06:18:30;-2.20;74.20
13115;DHT22;6623;52.120;8.660;2023-03-01T06:20:56;-2.10;74.30
13115;DHT22;6623;52.120;8.660;2023-03-01T06:23:22;-2.10;74.30
13115;DHT22;6623;52.120;8.660;2023-03-01T06:25:48;-2.10;74.30
13115;DHT22;6623;52.120;8.660;2023-03-01T06:28:14;-2.10;74.40
13115;DHT22;6623;52.120;8.660;2023-03-01T06:30:39;-2.10;74.50
13115;DHT22;6623;52.120;8.660;2023-03-01T06:33:05;-2.20;74.50
13115;DHT22;6623;52.120;8.660;2023-03-01T06:35:30;-2.10;74.60
13115;DHT22;6623;52.120;8.660;2023-03-01T06:37:56;-2.20;74.70
13115;DHT22;6623;52.120;8.660;2023-03-01T06:40:22;-2.10;74.80
13115;DHT22;6623;52.120;8.660;2023-03-01T06:42:50;-1.90;75.00
13115;DHT22;6623;52.120;8.660;2023-03-01T06:45:16;-2.10;74.90
13115;DHT22;6623;52.120;8.660;2023-03-01T06:47:42;-2.10;75.00
13115;DHT22;6623;52.120;8.660;2023-03-01T06:50:08;-2.10;75.10
13115;DHT22;6623;52.120;8.660;2023-03-01T06:52:34;-2.10;75.10
13115;DHT22;6623;52.120;8.660;2023-03-01T06:55:00;-2.00;75.30
13115;DHT22;6623;52.120;8.660;2023-03-01T06:57:26;-2.00;75.30
13115;DHT22;6623;52.120;8.660;2023-03-01T06:59:52;-2.00;75.40
13115;DHT22;6623;52.120;8.660;2023-03-01T07:02:17;-2.00;75.50
13115;DHT22;6623;52.120;8.660;2023-03-01T07:04:43;-2.00;75.60
13115;DHT22;6623;52.120;8.660;2023-03-01T07:07:09;-2.00;75.70
13115;DHT22;6623;52.120;8.660;2023-03-01T07:09:34;-1.90;75.80
13115;DHT22;6623;52.120;8.660;2023-03-01T07:12:00;-2.00;75.80
13115;DHT22;6623;52.120;8.660;2023-03-01T07:14:26;-1.50;76.20
13115;DHT22;6623;52.120;8.660;2023-03-01T07:16:53;-1.90;76.00
13115;DHT22;6623;52.120;8.660;2023-03-01T07:19:19;-1.90;76.10
13115;DHT22;6623;52.120;8.660;2023-03-01T07:21:45;-1.90;76.10
13115;DHT22;6623;52.120;8.660;2023-03-01T07:24:11;-1.80;76.20
13115;DHT22;6623;52.120;8.660;2023-03-01T07:26:37;-1.80;76.30
13115;DHT22;6623;52.120;8.660;2023-03-01T07:29:05;-1.80;76.30
13115;DHT22;6623;52.120;8.660;2023-03-01T07:31:31;-1.80;76.40
13115;DHT22;6623;52.120;8.660;2023-03-01T07:33:57;-1.80;76.50
13115;DHT22;6623;52.120;8.660;2023-03-01T07:36:23;-1.80;76.60
13115;DHT22;6623;52.120;8.660;2023-03-01T07:38:48;-1.80;76.80
13115;DHT22;6623;52.120;8.660;2023-03-01T07:41:14;-1.70;76.90
13115;DHT22;6623;52.120;8.660;2023-03-01T07:43:40;-1.70;76.90
13115;DHT22;6623;52.120;8.660;2023-03-01T07:46:06;-1.70;77.00
13115;DHT22;6623;52.120;8.660;2023-03-01T07:48:32;-1.60;77.20
13115;DHT22;6623;52.120;8.660;2023-03-01T07:50:59;-1.60;77.20
13115;DHT22;6623;52.120;8.660;2023-03-01T07:53:25;-1.60;77.30
13115;DHT22;6623;52.120;8.660;2023-03-01T07:56:03;-1.50;77.40
13115;DHT22;6623;52.120;8.660;2023-03-01T07:58:29;-1.50;77.50
13115;DHT22;6623;52.120;8.660;2023-03-01T08:00:55;-1.50;77.50
13115;DHT22;6623;52.120;8.660;2023-03-01T08:03:20;-1.50;77.60
13115;DHT22;6623;52.120;8.660;2023-03-01T08:05:46;-1.50;77.70
13115;DHT22;6623;52.120;8.660;2023-03-01T08:08:11;-1.40;77.80
13115;DHT22;6623;52.120;8.660;2023-03-01T08:10:37;-1.40;78.00
13115;DHT22;6623;52.120;8.660;2023-03-01T08:13:02;-1.30;78.10
13115;DHT22;6623;52.120;8.660;2023-03-01T08:15:28;-1.30;78.20
13115;DHT22;6623;52.120;8.660;2023-03-01T08:17:53;-1.30;78.20
13115;DHT22;6623;52.120;8.660;2023-03-01T08:20:19;-1.20;78.40
13115;DHT22;6623;52.120;8.660;2023-03-01T08:22:44;-1.20;78.50
13115;DHT22;6623;52.120;8.660;2023-03-01T08:25:10;-1.10;78.70
13115;DHT22;6623;52.120;8.660;2023-03-01T08:27:36;-1.10;78.80
13115;DHT22;6623;52.120;8.660;2023-03-01T08:30:01;-1.00;78.90
13115;DHT22;6623;52.120;8.660;2023-03-01T08:32:27;-1.00;78.90
13115;DHT22;6623;52.120;8.660;2023-03-01T08:34:52;-0.90;79.10
13115;DHT22;6623;52.120;8.660;2023-03-01T08:37:18;-0.40;79.50
13115;DHT22;6623;52.120;8.660;2023-03-01T08:39:43;-0.80;79.30
13115;DHT22;6623;52.120;8.660;2023-03-01T08:42:09;-0.70;79.50
13115;DHT22;6623;52.120;8.660;2023-03-01T08:44:34;-0.70;79.50
13115;DHT22;6623;52.120;8.660;2023-03-01T08:47:00;-0.60;79.60
13115;DHT22;6623;52.120;8.660;2023-03-01T08:49:27;-0.50;79.80
13115;DHT22;6623;52.120;8.660;2023-03-01T08:51:53;-0.10;80.20
13115;DHT22;6623;52.120;8.660;2023-03-01T08:54:21;-0.40;80.00
13115;DHT22;6623;52.120;8.660;2023-03-01T08:56:47;-0.40;80.00
13115;DHT22;6623;52.120;8.660;2023-03-01T08:59:15;-0.30;80.10
13115;DHT22;6623;52.120;8.660;2023-03-01T09:01:41;-0.20;80.10
13115;DHT22;6623;52.120;8.660;2023-03-01T09:04:09;-0.10;80.20
13115;DHT22;6623;52.120;8.660;2023-03-01T09:06:34;-0.10;80.10
13115;DHT22;6623;52.120;8.660;2023-03-01T09:09:00;0.00;80.20
13115;DHT22;6623;52.120;8.660;2023-03-01T09:11:26;0.10;80.20
13115;DHT22;6623;52.120;8.660;2023-03-01T09:13:51;0.50;80.30
13115;DHT22;6623;52.120;8.660;2023-03-01T09:16:19;0.30;80.10
13115;DHT22;6623;52.120;8.660;2023-03-01T09:18:49;0.30;80.00
13115;DHT22;6623;52.120;8.660;2023-03-01T09:21:17;0.40;80.00
13115;DHT22;6623;52.120;8.660;2023-03-01T09:23:44;0.50;79.90
13115;DHT22;6623;52.120;8.660;2023-03-01T09:26:20;0.50;79.80
13115;DHT22;6623;52.120;8.660;2023-03-01T09:28:50;0.60;79.70
13115;DHT22;6623;52.120;8.660;2023-03-01T09:31:18;0.70;79.50
13115;DHT22;6623;52.120;8.660;2023-03-01T09:33:46;0.80;79.40
13115;DHT22;6623;52.120;8.660;2023-03-01T09:36:15;0.80;79.20
13115;DHT22;6623;52.120;8.660;2023-03-01T09:38:41;0.90;79.20
13115;DHT22;6623;52.120;8.660;2023-03-01T09:43:47;1.00;78.90
13115;DHT22;6623;52.120;8.660;2023-03-01T09:46:19;1.10;79.20
13115;DHT22;6623;52.120;8.660;2023-03-01T09:49:04;1.20;78.40
13115;DHT22;6623;52.120;8.660;2023-03-01T09:51:33;1.30;78.10
13115;DHT22;6623;52.120;8.660;2023-03-01T09:54:02;1.30;77.80
13115;DHT22;6623;52.120;8.660;2023-03-01T09:56:45;1.40;77.30
13115;DHT22;6623;52.120;8.660;2023-03-01T10:01:59;1.50;76.40
13115;DHT22;6623;52.120;8.660;2023-03-01T10:04:47;1.70;75.90
13115;DHT22;6623;52.120;8.660;2023-03-01T10:07:47;1.80;75.60
13115;DHT22;6623;52.120;8.660;2023-03-01T10:10:37;1.70;75.20
13115;DHT22;6623;52.120;8.660;2023-03-01T10:13:14;1.80;74.90
13115;DHT22;6623;52.120;8.660;2023-03-01T10:15:45;1.80;74.20
13115;DHT22;6623;52.120;8.660;2023-03-01T10:18:18;1.80;73.80
13115;DHT22;6623;52.120;8.660;2023-03-01T10:20:57;1.90;73.70
13115;DHT22;6623;52.120;8.660;2023-03-01T10:23:25;1.90;73.10
13115;DHT22;6623;52.120;8.660;2023-03-01T10:29:06;2.00;71.90
13115;DHT22;6623;52.120;8.660;2023-03-01T10:31:49;2.10;71.60
13115;DHT22;6623;52.120;8.660;2023-03-01T10:34:37;2.10;71.00
13115;DHT22;6623;52.120;8.660;2023-03-01T10:37:16;2.10;71.00
13115;DHT22;6623;52.120;8.660;2023-03-01T10:40:04;2.20;71.00
13115;DHT22;6623;52.120;8.660;2023-03-01T10:42:46;2.20;70.70
13115;DHT22;6623;52.120;8.660;2023-03-01T10:50:46;2.40;69.90
13115;DHT22;6623;52.120;8.660;2023-03-01T10:53:26;2.40;69.60
13115;DHT22;6623;52.120;8.660;2023-03-01T10:56:14;2.40;69.50
13115;DHT22;6623;52.120;8.660;2023-03-01T10:58:56;2.50;69.60
13115;DHT22;6623;52.120;8.660;2023-03-01T11:06:32;2.60;68.40
13115;DHT22;6623;52.120;8.660;2023-03-01T11:09:13;2.70;68.40
13115;DHT22;6623;52.120;8.660;2023-03-01T11:11:40;2.70;68.30
13115;DHT22;6623;52.120;8.660;2023-03-01T11:14:22;2.80;67.80
13115;DHT22;6623;52.120;8.660;2023-03-01T11:16:58;2.80;67.60
13115;DHT22;6623;52.120;8.660;2023-03-01T11:19:24;3.20;68.00
13115;DHT22;6623;52.120;8.660;2023-03-01T11:24:44;2.90;67.70
13115;DHT22;6623;52.120;8.660;2023-03-01T11:27:24;3.00;67.40
13115;DHT22;6623;52.120;8.660;2023-03-01T11:32:47;3.00;66.90
13115;DHT22;6623;52.120;8.660;2023-03-01T11:35:21;3.10;66.10
13115;DHT22;6623;52.120;8.660;2023-03-01T11:38:04;3.10;65.40
13115;DHT22;6623;52.120;8.660;2023-03-01T11:40:39;3.20;65.10
13115;DHT22;6623;52.120;8.660;2023-03-01T11:48:53;3.30;64.80
13115;DHT22;6623;52.120;8.660;2023-03-01T11:54:12;3.30;64.40
13115;DHT22;6623;52.120;8.660;2023-03-01T11:56:52;3.40;64.30
13115;DHT22;6623;52.120;8.660;2023-03-01T12:07:36;3.60;64.30
13115;DHT22;6623;52.120;8.660;2023-03-01T12:10:26;3.60;64.60
13115;DHT22;6623;52.120;8.660;2023-03-01T12:18:32;3.70;64.40
13115;DHT22;6623;52.120;8.660;2023-03-01T12:26:21;3.80;63.30
13115;DHT22;6623;52.120;8.660;2023-03-01T12:37:45;3.90;63.00
13115;DHT22;6623;52.120;8.660;2023-03-01T12:41:01;3.90;62.60
13115;DHT22;6623;52.120;8.660;2023-03-01T12:48:50;4.00;62.40
13115;DHT22;6623;52.120;8.660;2023-03-01T12:51:24;4.10;62.00
13115;DHT22;6623;52.120;8.660;2023-03-01T12:53:54;4.10;62.00
13115;DHT22;6623;52.120;8.660;2023-03-01T12:56:26;4.10;62.70
13115;DHT22;6623;52.120;8.660;2023-03-01T13:05:29;4.20;61.50
13115;DHT22;6623;52.120;8.660;2023-03-01T13:08:16;4.20;61.40
13115;DHT22;6623;52.120;8.660;2023-03-01T13:10:49;4.30;61.40
13115;DHT22;6623;52.120;8.660;2023-03-01T13:13:21;4.20;61.20
13115;DHT22;6623;52.120;8.660;2023-03-01T13:15:47;4.30;60.90
13115;DHT22;6623;52.120;8.660;2023-03-01T13:20:47;4.30;60.50
13115;DHT22;6623;52.120;8.660;2023-03-01T13:26:17;4.30;60.50
13115;DHT22;6623;52.120;8.660;2023-03-01T13:28:54;4.50;60.60
13115;DHT22;6623;52.120;8.660;2023-03-01T13:34:00;4.50;60.50
13115;DHT22;6623;52.120;8.660;2023-03-01T13:46:44;4.70;59.20
13115;DHT22;6623;52.120;8.660;2023-03-01T13:49:14;4.60;58.90
13115;DHT22;6623;52.120;8.660;2023-03-01T13:51:42;4.70;58.90
13115;DHT22;6623;52.120;8.660;2023-03-01T13:54:12;4.70;59.00
13115;DHT22;6623;52.120;8.660;2023-03-01T13:56:40;4.70;59.00
13115;DHT22;6623;52.120;8.660;2023-03-01T13:59:17;4.70;59.00
13115;DHT22;6623;52.120;8.660;2023-03-01T14:01:43;4.80;59.00
13115;DHT22;6623;52.120;8.660;2023-03-01T14:04:27;4.80;59.10
13115;DHT22;6623;52.120;8.660;2023-03-01T14:07:29;4.80;59.10
13115;DHT22;6623;52.120;8.660;2023-03-01T14:09:58;4.90;59.00
13115;DHT22;6623;52.120;8.660;2023-03-01T14:12:54;4.80;58.70
13115;DHT22;6623;52.120;8.660;2023-03-01T14:15:29;4.90;58.90
13115;DHT22;6623;52.120;8.660;2023-03-01T14:18:19;4.90;59.10
13115;DHT22;6623;52.120;8.660;2023-03-01T14:20:47;4.90;58.90
13115;DHT22;6623;52.120;8.660;2023-03-01T14:23:22;4.90;58.50
13115;DHT22;6623;52.120;8.660;2023-03-01T14:25:54;4.90;57.70
13115;DHT22;6623;52.120;8.660;2023-03-01T14:28:32;4.90;57.80
13115;DHT22;6623;52.120;8.660;2023-03-01T14:31:01;5.00;58.20
13115;DHT22;6623;52.120;8.660;2023-03-01T14:33:35;5.00;56.90
13115;DHT22;6623;52.120;8.660;2023-03-01T14:36:11;5.00;57.30
13115;DHT22;6623;52.120;8.660;2023-03-01T14:38:42;5.00;57.10
13115;DHT22;6623;52.120;8.660;2023-03-01T14:41:19;5.00;57.20
13115;DHT22;6623;52.120;8.660;2023-03-01T14:43:49;5.00;56.70
13115;DHT22;6623;52.120;8.660;2023-03-01T14:46:25;5.00;56.60
13115;DHT22;6623;52.120;8.660;2023-03-01T14:48:54;5.00;56.90
13115;DHT22;6623;52.120;8.660;2023-03-01T14:51:21;5.00;56.40
13115;DHT22;6623;52.120;8.660;2023-03-01T14:53:47;5.00;57.00
13115;DHT22;6623;52.120;8.660;2023-03-01T14:56:15;5.00;56.60
13115;DHT22;6623;52.120;8.660;2023-03-01T14:58:43;5.00;56.80
13115;DHT22;6623;52.120;8.660;2023-03-01T15:01:16;5.00;56.60
13115;DHT22;6623;52.120;8.660;2023-03-01T15:03:45;5.00;56.60
13115;DHT22;6623;52.120;8.660;2023-03-01T15:06:15;5.10;56.80
13115;DHT22;6623;52.120;8.660;2023-03-01T15:08:44;5.10;56.60
13115;DHT22;6623;52.120;8.660;2023-03-01T15:11:21;5.10;56.80
13115;DHT22;6623;52.120;8.660;2023-03-01T15:13:48;5.10;57.00
13115;DHT22;6623;52.120;8.660;2023-03-01T15:16:23;5.10;56.80
13115;DHT22;6623;52.120;8.660;2023-03-01T15:18:55;5.10;56.60
13115;DHT22;6623;52.120;8.660;2023-03-01T15:21:26;5.10;56.70
13115;DHT22;6623;52.120;8.660;2023-03-01T15:26:43;5.10;56.20
13115;DHT22;6623;52.120;8.660;2023-03-01T15:29:18;5.10;55.80
13115;DHT22;6623;52.120;8.660;2023-03-01T15:32:38;5.10;55.90
13115;DHT22;6623;52.120;8.660;2023-03-01T15:34:39;5.10;56.10
13115;DHT22;6623;52.120;8.660;2023-03-01T15:37:15;5.10;56.20
13115;DHT22;6623;52.120;8.660;2023-03-01T15:39:54;5.10;56.20
13115;DHT22;6623;52.120;8.660;2023-03-01T15:45:09;5.10;56.10
13115;DHT22;6623;52.120;8.660;2023-03-01T15:47:36;5.10;55.90
13115;DHT22;6623;52.120;8.660;2023-03-01T15:50:04;5.10;55.80
13115;DHT22;6623;52.120;8.660;2023-03-01T15:52:35;5.10;56.00
13115;DHT22;6623;52.120;8.660;2023-03-01T15:55:14;5.10;55.90
13115;DHT22;6623;52.120;8.660;2023-03-01T15:57:40;5.10;56.00
13115;DHT22;6623;52.120;8.660;2023-03-01T16:00:09;5.10;56.00
13115;DHT22;6623;52.120;8.660;2023-03-01T16:02:39;5.10;55.90
13115;DHT22;6623;52.120;8.660;2023-03-01T16:05:08;5.10;55.90
13115;DHT22;6623;52.120;8.660;2023-03-01T16:07:38;5.10;55.80
13115;DHT22;6623;52.120;8.660;2023-03-01T16:10:05;5.10;55.80
13115;DHT22;6623;52.120;8.660;2023-03-01T16:12:30;5.10;55.80
13115;DHT22;6623;52.120;8.660;2023-03-01T16:14:56;5.00;55.80
13115;DHT22;6623;52.120;8.660;2023-03-01T16:17:22;5.00;55.80
13115;DHT22;6623;52.120;8.660;2023-03-01T16:19:48;5.00;55.90
13115;DHT22;6623;52.120;8.660;2023-03-01T16:22:14;5.00;56.00
13115;DHT22;6623;52.120;8.660;2023-03-01T16:24:39;5.00;56.00
13115;DHT22;6623;52.120;8.660;2023-03-01T16:27:06;4.90;56.10
13115;DHT22;6623;52.120;8.660;2023-03-01T16:29:32;4.90;56.20
13115;DHT22;6623;52.120;8.660;2023-03-01T16:32:00;4.90;56.20
13115;DHT22;6623;52.120;8.660;2023-03-01T16:34:26;4.90;56.30
13115;DHT22;6623;52.120;8.660;2023-03-01T16:36:52;4.80;56.20
13115;DHT22;6623;52.120;8.660;2023-03-01T16:39:17;4.80;56.30
13115;DHT22;6623;52.120;8.660;2023-03-01T16:41:43;4.80;56.50
13115;DHT22;6623;52.120;8.660;2023-03-01T16:44:09;4.80;56.50
13115;DHT22;6623;52.120;8.660;2023-03-01T16:46:34;4.70;56.50
13115;DHT22;6623;52.120;8.660;2023-03-01T16:49:00;4.70;56.60
13115;DHT22;6623;52.120;8.660;2023-03-01T16:51:25;4.70;56.60
13115;DHT22;6623;52.120;8.660;2023-03-01T16:53:51;4.70;56.70
13115;DHT22;6623;52.120;8.660;2023-03-01T16:56:18;4.60;56.80
13115;DHT22;6623;52.120;8.660;2023-03-01T16:58:44;4.60;56.80
13115;DHT22;6623;52.120;8.660;2023-03-01T17:01:14;4.50;56.80
13115;DHT22;6623;52.120;8.660;2023-03-01T17:03:42;4.50;56.90
13115;DHT22;6623;52.120;8.660;2023-03-01T17:06:13;4.50;57.00
13115;DHT22;6623;52.120;8.660;2023-03-01T17:08:39;4.40;57.00
13115;DHT22;6623;52.120;8.660;2023-03-01T17:11:14;4.40;57.20
13115;DHT22;6623;52.120;8.660;2023-03-01T17:13:40;4.30;57.20
13115;DHT22;6623;52.120;8.660;2023-03-01T17:16:08;4.30;57.30
13115;DHT22;6623;52.120;8.660;2023-03-01T17:18:34;4.30;57.30
13115;DHT22;6623;52.120;8.660;2023-03-01T17:20:59;4.30;57.40
13115;DHT22;6623;52.120;8.660;2023-03-01T17:23:28;4.30;57.40
13115;DHT22;6623;52.120;8.660;2023-03-01T17:25:56;4.20;57.50
13115;DHT22;6623;52.120;8.660;2023-03-01T17:28:23;4.20;57.50
13115;DHT22;6623;52.120;8.660;2023-03-01T17:30:49;4.20;57.60
13115;DHT22;6623;52.120;8.660;2023-03-01T17:33:15;4.20;57.60
13115;DHT22;6623;52.120;8.660;2023-03-01T17:35:40;4.10;57.70
13115;DHT22;6623;52.120;8.660;2023-03-01T17:38:06;4.10;57.80
13115;DHT22;6623;52.120;8.660;2023-03-01T17:40:32;4.10;57.80
13115;DHT22;6623;52.120;8.660;2023-03-01T17:43:00;4.00;57.80
13115;DHT22;6623;52.120;8.660;2023-03-01T17:45:25;4.00;57.90
13115;DHT22;6623;52.120;8.660;2023-03-01T17:47:51;4.00;58.00
13115;DHT22;6623;52.120;8.660;2023-03-01T17:50:17;4.00;58.10
13115;DHT22;6623;52.120;8.660;2023-03-01T17:52:42;3.90;58.10
13115;DHT22;6623;52.120;8.660;2023-03-01T17:55:08;3.90;58.20
13115;DHT22;6623;52.120;8.660;2023-03-01T17:57:37;3.90;58.30